Time;durP1;ratioP1;P1;durP2;ratioP2;P2;SDS_P1;SDS_P2;PMS_P1;PMS_P2;Temp;Humidity;BMP_temperature;BMP_pressure;BME280_temperature;BME280_humidity;BME280_pressure;Samples;Min_cycle;Max_cycle;Signal;HPM_P1;HPM_P2
2021/09/03 00:01:58;;;;;;;;;;;;;;;13.54;70.22;96994.91;5055353;28;19999;-82
2021/09/03 00:04:24;;;;;;;;;;;;;;;13.51;70.13;96987.44;5055527;28;20327;-82
2021/09/03 00:06:49;;;;;;;;;;;;;;;13.48;70.17;96987.88;5055355;28;20017;-82
2021/09/03 00:09:15;;;;;;;;;;;;;;;13.45;70.55;96990.94;5055135;28;20329;-82
2021/09/03 00:11:41;;;;;;;;;;;;;;;13.43;70.46;96987.72;5055172;28;19998;-82
2021/09/03 00:14:07;;;;;;;;;;;;;;;13.41;70.39;96987.16;5054405;28;19952;-82
2021/09/03 00:16:37;;;;;;;;;;;;;;;13.38;70.59;96979.69;5054782;28;20405;-82
2021/09/03 00:19:04;;;;;;;;;;;;;;;13.34;71.02;96984.59;5055230;28;19964;-82
2021/09/03 00:21:30;;;;;;;;;;;;;;;13.31;70.29;96976.31;5054577;28;19977;-82
2021/09/03 00:23:56;;;;;;;;;;;;;;;13.26;71.09;96982.25;5055157;28;20042;-82
2021/09/03 00:26:22;;;;;;;;;;;;;;;13.22;71.35;96973.16;5055020;28;19990;-83
2021/09/03 00:28:48;;;;;;;;;;;;;;;13.17;71.86;96971.22;5052883;28;20307;-82
2021/09/03 00:31:13;;;;;;;;;;;;;;;13.09;71.85;96968.88;5054980;28;19954;-83
2021/09/03 00:33:39;;;;;;;;;;;;;;;13.02;71.82;96972.59;5055062;28;19961;-83
2021/09/03 00:36:05;;;;;;;;;;;;;;;12.98;72.39;96962.53;5054948;28;20423;-82
2021/09/03 00:38:31;;;;;;;;;;;;;;;12.96;72.18;96961.94;5054583;28;19953;-82
2021/09/03 00:40:57;;;;;;;;;;;;;;;12.96;72.50;96963.78;5054493;28;20413;-83
2021/09/03 00:43:25;;;;;;;;;;;;;;;12.95;72.43;96962.16;5054521;28;19952;-82
2021/09/03 00:45:51;;;;;;;;;;;;;;;12.93;72.43;96967.63;5054531;28;19941;-82
2021/09/03 00:48:17;;;;;;;;;;;;;;;12.90;72.57;96962.00;5054915;28;20027;-82
2021/09/03 00:50:44;;;;;;;;;;;;;;;12.87;72.28;96949.28;5054703;28;19957;-83
2021/09/03 00:53:10;;;;;;;;;;;;;;;12.83;72.64;96956.81;5054235;28;19955;-83
2021/09/03 00:55:36;;;;;;;;;;;;;;;12.81;72.62;96945.72;5054345;28;19957;-83
2021/09/03 00:58:02;;;;;;;;;;;;;;;12.79;72.69;96953.03;5054025;28;19950;-83
2021/09/03 01:00:27;;;;;;;;;;;;;;;12.78;72.69;96954.81;5045158;28;19962;-83
2021/09/03 01:02:53;;;;;;;;;;;;;;;12.77;72.46;96945.34;5054075;28;20026;-83
2021/09/03 01:05:23;;;;;;;;;;;;;;;12.77;72.42;96955.88;5054390;28;19996;-83
2021/09/03 01:07:50;;;;;;;;;;;;;;;12.75;73.11;96954.47;5054090;28;20461;-82
2021/09/03 01:10:19;;;;;;;;;;;;;;;12.72;72.66;96953.06;5053892;28;19955;-82
2021/09/03 01:12:45;;;;;;;;;;;;;;;12.70;72.76;96957.75;5054217;28;20394;-82
2021/09/03 01:15:11;;;;;;;;;;;;;;;12.70;72.59;96962.22;5054164;28;19948;-82
2021/09/03 01:17:39;;;;;;;;;;;;;;;12.68;72.66;96964.25;5053834;28;20054;-83
2021/09/03 01:20:07;;;;;;;;;;;;;;;12.64;72.66;96961.28;5053928;28;19965;-83
2021/09/03 01:22:33;;;;;;;;;;;;;;;12.63;72.47;96953.59;5053842;28;20425;-83
2021/09/03 01:24:59;;;;;;;;;;;;;;;12.60;72.77;96952.22;5053803;28;19973;-83
2021/09/03 01:27:25;;;;;;;;;;;;;;;12.56;73.00;96949.19;5053796;28;19955;-82
2021/09/03 01:29:51;;;;;;;;;;;;;;;12.54;72.52;96945.19;5053280;28;20437;-82
2021/09/03 01:32:17;;;;;;;;;;;;;;;12.51;72.68;96949.03;5052001;28;19953;-83
2021/09/03 01:34:43;;;;;;;;;;;;;;;12.48;72.88;96946.06;5053706;28;20316;-83
2021/09/03 01:37:08;;;;;;;;;;;;;;;12.45;72.83;96941.22;5053782;28;19981;-83
2021/09/03 01:39:35;;;;;;;;;;;;;;;12.42;73.29;96939.03;5053377;28;19959;-83
2021/09/03 01:42:00;;;;;;;;;;;;;;;12.40;72.99;96941.88;5053263;28;19977;-83
2021/09/03 01:44:26;;;;;;;;;;;;;;;12.39;73.27;96943.69;5053725;28;19960;-83
2021/09/03 01:46:52;;;;;;;;;;;;;;;12.37;73.25;96940.47;5053513;28;19947;-83
2021/09/03 01:49:18;;;;;;;;;;;;;;;12.33;73.38;96944.56;5052423;28;19961;-82
2021/09/03 01:51:44;;;;;;;;;;;;;;;12.29;73.24;96947.84;5053641;28;19971;-83
2021/09/03 01:54:10;;;;;;;;;;;;;;;12.25;73.26;96947.47;5053375;28;20017;-83
2021/09/03 01:56:37;;;;;;;;;;;;;;;12.23;73.74;96949.50;5053441;28;19958;-83
2021/09/03 01:59:03;;;;;;;;;;;;;;;12.20;73.53;96955.22;5053635;28;20377;-83
2021/09/03 02:01:29;;;;;;;;;;;;;;;12.17;73.44;96953.78;5053380;28;19961;-83
2021/09/03 02:03:54;;;;;;;;;;;;;;;12.14;73.27;96941.09;5053616;28;20392;-83
2021/09/03 02:06:20;;;;;;;;;;;;;;;12.11;73.19;96936.25;5053232;28;20048;-83
2021/09/03 02:08:46;;;;;;;;;;;;;;;12.09;73.30;96932.22;5053389;28;19956;-83
2021/09/03 02:11:12;;;;;;;;;;;;;;;12.05;73.79;96925.78;5053083;28;19960;-83
2021/09/03 02:13:38;;;;;;;;;;;;;;;12.01;73.67;96922.81;5053315;28;19988;-83
2021/09/03 02:16:04;;;;;;;;;;;;;;;11.99;73.57;96922.22;5053305;28;19963;-84
2021/09/03 02:18:30;;;;;;;;;;;;;;;11.97;73.83;96919.78;5053297;28;20406;-83
2021/09/03 02:20:56;;;;;;;;;;;;;;;11.94;73.71;96914.94;5053162;28;19950;-84
2021/09/03 02:23:23;;;;;;;;;;;;;;;11.91;73.97;96914.59;5051244;28;19980;-84
2021/09/03 02:25:49;;;;;;;;;;;;;;;11.89;74.40;96914.00;5053413;28;19969;-84
2021/09/03 02:28:15;;;;;;;;;;;;;;;11.86;74.43;96906.50;5053224;28;20399;-84
2021/09/03 02:30:42;;;;;;;;;;;;;;;11.84;74.92;96906.69;5053324;28;19969;-83
2021/09/03 02:33:07;;;;;;;;;;;;;;;11.83;75.46;96906.94;5052127;28;19955;-83
2021/09/03 02:35:33;;;;;;;;;;;;;;;11.82;75.07;96906.13;5053099;28;19946;-84
2021/09/03 02:37:59;;;;;;;;;;;;;;;11.82;74.92;96903.50;5056465;28;19961;-83
2021/09/03 02:40:26;;;;;;;;;;;;;;;11.81;75.56;96904.53;5056810;28;20306;-83
2021/09/03 02:42:52;;;;;;;;;;;;;;;11.80;75.40;96900.28;5057126;28;19971;-84
2021/09/03 02:45:18;;;;;;;;;;;;;;;11.81;75.56;96896.63;5056812;28;19956;-83
2021/09/03 02:47:43;;;;;;;;;;;;;;;11.81;75.58;96896.63;5057030;28;19955;-83
2021/09/03 02:50:10;;;;;;;;;;;;;;;11.81;75.77;96899.25;5056700;28;19960;-84
2021/09/03 02:52:35;;;;;;;;;;;;;;;11.81;75.53;96894.00;5056943;28;19960;-84
2021/09/03 02:55:01;;;;;;;;;;;;;;;11.83;75.92;96897.22;5056720;28;19963;-84
2021/09/03 02:57:27;;;;;;;;;;;;;;;11.81;76.14;96891.38;5057012;28;19988;-84
2021/09/03 02:59:53;;;;;;;;;;;;;;;11.81;76.49;96887.97;5055351;28;20373;-84
2021/09/03 03:02:19;;;;;;;;;;;;;;;11.80;75.98;96895.03;5056400;28;20057;-84
2021/09/03 03:04:45;;;;;;;;;;;;;;;11.79;75.96;96896.03;5056500;28;20048;-84
2021/09/03 03:07:11;;;;;;;;;;;;;;;11.76;75.88;96893.84;5056425;28;19982;-84
2021/09/03 03:09:37;;;;;;;;;;;;;;;11.75;76.19;96889.59;5056597;28;19951;-84
2021/09/03 03:12:03;;;;;;;;;;;;;;;11.73;75.76;96889.00;5056222;28;19955;-84
2021/09/03 03:14:33;;;;;;;;;;;;;;;11.72;76.07;96895.31;5056392;28;19969;-84
2021/09/03 03:16:59;;;;;;;;;;;;;;;11.71;76.21;96888.44;5056261;28;19966;-84
2021/09/03 03:19:25;;;;;;;;;;;;;;;11.69;76.04;96890.47;5056069;28;19952;-84
2021/09/03 03:21:52;;;;;;;;;;;;;;;11.65;76.02;96890.06;5055840;28;20083;-84
2021/09/03 03:24:18;;;;;;;;;;;;;;;11.64;76.07;96887.69;5056301;28;19966;-84
2021/09/03 03:26:44;;;;;;;;;;;;;;;11.62;76.32;96889.72;5056047;28;19951;-84
2021/09/03 03:29:10;;;;;;;;;;;;;;;11.59;76.42;96883.06;5055145;28;19956;-83
2021/09/03 03:31:35;;;;;;;;;;;;;;;11.56;75.54;96889.53;5055958;28;20405;-84
2021/09/03 03:34:02;;;;;;;;;;;;;;;11.54;75.66;96888.94;5055989;28;19950;-84
2021/09/03 03:36:28;;;;;;;;;;;;;;;11.52;75.49;96883.09;5055668;28;20393;-84
2021/09/03 03:38:54;;;;;;;;;;;;;;;11.50;75.12;96889.59;5056517;28;19948;-84
2021/09/03 03:41:20;;;;;;;;;;;;;;;11.47;75.23;96882.16;5056189;28;20395;-84
2021/09/03 03:43:46;;;;;;;;;;;;;;;11.45;75.26;96882.34;5055714;28;20018;-84
2021/09/03 03:46:12;;;;;;;;;;;;;;;11.43;75.28;96887.00;5055817;28;20041;-84
2021/09/03 03:48:38;;;;;;;;;;;;;;;11.40;75.64;96884.78;5054264;28;20319;-84
2021/09/03 03:51:04;;;;;;;;;;;;;;;11.36;75.77;96886.25;5053680;28;19954;-84
2021/09/03 03:53:29;;;;;;;;;;;;;;;11.31;76.09;96894.75;5055935;28;19961;-84
2021/09/03 03:55:55;;;;;;;;;;;;;;;11.28;75.95;96900.44;5055553;28;20001;-84
2021/09/03 03:58:21;;;;;;;;;;;;;;;11.25;76.11;96895.59;5054376;28;20298;-84
2021/09/03 04:00:47;;;;;;;;;;;;;;;11.24;75.95;96895.81;5055390;28;19952;-84
2021/09/03 04:03:13;;;;;;;;;;;;;;;11.20;75.75;96884.94;5055340;28;19970;-84
2021/09/03 04:05:39;;;;;;;;;;;;;;;11.18;75.81;96884.31;5055107;28;19953;-84
2021/09/03 04:08:05;;;;;;;;;;;;;;;11.18;76.09;96879.09;5053814;28;19944;-84
2021/09/03 04:10:31;;;;;;;;;;;;;;;11.14;76.13;96881.31;5055440;28;19962;-84
2021/09/03 04:12:57;;;;;;;;;;;;;;;11.14;75.75;96883.13;5055348;28;20421;-84
2021/09/03 04:15:23;;;;;;;;;;;;;;;11.11;76.18;96884.38;5055144;28;19955;-84
2021/09/03 04:17:49;;;;;;;;;;;;;;;11.08;76.48;96887.41;5055157;28;20412;-84
2021/09/03 04:20:15;;;;;;;;;;;;;;;11.07;76.16;96892.88;5054826;28;19962;-84
2021/09/03 04:22:41;;;;;;;;;;;;;;;11.02;76.20;96898.72;5054996;28;20025;-84
2021/09/03 04:25:07;;;;;;;;;;;;;;;10.99;76.31;96895.75;5055216;28;19993;-84
2021/09/03 04:27:35;;;;;;;;;;;;;;;10.94;75.74;96894.56;5054988;28;19954;-84
2021/09/03 04:30:02;;;;;;;;;;;;;;;10.90;75.70;96885.47;5054771;28;19943;-84
2021/09/03 04:32:28;;;;;;;;;;;;;;;10.86;75.34;96893.97;5054881;28;19956;-84
2021/09/03 04:34:54;;;;;;;;;;;;;;;10.83;75.38;96897.81;5054844;28;19945;-84
2021/09/03 04:37:20;;;;;;;;;;;;;;;10.80;75.45;96892.19;5053940;28;20034;-84
2021/09/03 04:39:45;;;;;;;;;;;;;;;10.76;75.26;96892.59;5054645;28;19954;-84
2021/09/03 04:42:11;;;;;;;;;;;;;;;10.73;74.88;96895.63;5054572;28;20054;-84
2021/09/03 04:44:37;;;;;;;;;;;;;;;10.70;75.21;96896.03;5054786;28;20385;-84
2021/09/03 04:47:03;;;;;;;;;;;;;;;10.69;75.75;96897.06;5054257;28;19958;-84
2021/09/03 04:49:29;;;;;;;;;;;;;;;10.68;76.04;96899.88;5054636;28;20404;-84
2021/09/03 04:51:55;;;;;;;;;;;;;;;10.64;76.06;96894.25;5054516;28;19957;-84
2021/09/03 04:54:21;;;;;;;;;;;;;;;10.62;75.88;96895.47;5054457;28;19961;-84
2021/09/03 04:56:47;;;;;;;;;;;;;;;10.60;75.42;96887.00;5054284;28;20323;-84
2021/09/03 04:59:13;;;;;;;;;;;;;;;10.59;75.63;96901.94;5053900;28;19955;-84
2021/09/03 05:01:38;;;;;;;;;;;;;;;10.56;75.50;96892.66;5054287;28;19990;-84
2021/09/03 05:04:04;;;;;;;;;;;;;;;10.55;75.66;96891.03;5054511;28;19970;-84
2021/09/03 05:06:30;;;;;;;;;;;;;;;10.53;75.50;96893.06;5054841;28;20375;-84
2021/09/03 05:08:56;;;;;;;;;;;;;;;10.53;75.38;96892.28;5052958;28;20013;-84
2021/09/03 05:11:22;;;;;;;;;;;;;;;10.52;75.78;96894.09;5054122;28;19960;-84
2021/09/03 05:13:48;;;;;;;;;;;;;;;10.53;75.95;96900.13;5054449;28;20020;-84
2021/09/03 05:16:14;;;;;;;;;;;;;;;10.52;75.94;96904.59;5054020;28;20323;-84
2021/09/03 05:18:40;;;;;;;;;;;;;;;10.51;76.88;96907.41;5054072;28;20456;-84
2021/09/03 05:21:07;;;;;;;;;;;;;;;10.72;76.49;96903.72;5054009;28;20013;-84
2021/09/03 05:23:33;;;;;;;;;;;;;;;11.26;75.58;96899.03;5053806;28;20332;-84
2021/09/03 05:25:59;;;;;;;;;;;;;;;11.87;74.30;96892.34;5053818;28;19960;-84
2021/09/03 05:28:27;;;;;;;;;;;;;;;12.49;72.38;96897.66;5053886;28;20414;-84
2021/09/03 05:30:53;;;;;;;;;;;;;;;13.08;70.86;96885.66;5053742;28;19952;-84
2021/09/03 05:33:20;;;;;;;;;;;;;;;13.62;69.52;96887.56;5053771;28;20327;-84
2021/09/03 05:35:46;;;;;;;;;;;;;;;14.11;68.21;96875.81;5053899;28;19955;-84
2021/09/03 05:38:12;;;;;;;;;;;;;;;14.61;67.04;96874.50;5053713;28;20419;-84
2021/09/03 05:40:38;;;;;;;;;;;;;;;15.04;65.97;96873.25;5053720;28;19976;-84
2021/09/03 05:43:04;;;;;;;;;;;;;;;15.42;64.81;96863.88;5053626;28;19990;-84
2021/09/03 05:45:30;;;;;;;;;;;;;;;15.79;63.84;96866.91;5053589;28;20415;-84
2021/09/03 05:47:59;;;;;;;;;;;;;;;16.16;63.74;96855.00;5053637;28;19955;-84
2021/09/03 05:50:25;;;;;;;;;;;;;;;16.49;62.30;96856.00;5053795;28;19953;-84
2021/09/03 05:52:50;;;;;;;;;;;;;;;16.79;61.49;96853.69;5053764;28;19964;-84
2021/09/03 05:55:16;;;;;;;;;;;;;;;17.08;60.87;96850.88;5053036;28;20026;-84
2021/09/03 05:57:42;;;;;;;;;;;;;;;17.34;60.24;96851.91;5053350;28;19997;-84
2021/09/03 06:00:09;;;;;;;;;;;;;;;17.53;59.76;96849.69;5053582;28;19962;-84
2021/09/03 06:02:34;;;;;;;;;;;;;;;17.65;58.34;96850.34;5053553;28;19970;-84
2021/09/03 06:05:00;;;;;;;;;;;;;;;17.69;57.95;96839.22;5053643;28;20035;-84
2021/09/03 06:07:26;;;;;;;;;;;;;;;17.53;55.75;96825.81;5053431;28;19963;-84
2021/09/03 06:09:52;;;;;;;;;;;;;;;17.38;57.50;96841.63;5053384;28;19968;-84
2021/09/03 06:12:18;;;;;;;;;;;;;;;17.29;58.26;96849.22;5055898;28;19963;-84
2021/09/03 06:14:44;;;;;;;;;;;;;;;17.32;58.10;96848.72;5057643;28;20017;-83
2021/09/03 06:17:10;;;;;;;;;;;;;;;17.35;57.78;96848.22;5057538;28;19962;-84
2021/09/03 06:19:36;;;;;;;;;;;;;;;17.47;57.62;96844.59;5057220;28;19962;-83
2021/09/03 06:22:02;;;;;;;;;;;;;;;17.54;57.44;96848.66;5056919;28;19992;-84
2021/09/03 06:24:29;;;;;;;;;;;;;;;17.49;56.90;96835.38;5057328;28;19980;-83
2021/09/03 06:26:59;;;;;;;;;;;;;;;17.37;56.81;96847.97;5057310;28;20335;-83
2021/09/03 06:29:41;;;;;;;;;;;;;;;17.16;57.92;96853.09;5056918;28;19983;-83
2021/09/03 06:32:15;;;;;;;;;;;;;;;17.17;57.55;96857.31;5057628;28;19958;-83
2021/09/03 06:34:42;;;;;;;;;;;;;;;17.24;57.25;96852.63;5041895;28;19967;-83
2021/09/03 06:37:08;;;;;;;;;;;;;;;17.36;57.92;96856.97;5055301;28;19973;-83
2021/09/03 06:39:35;;;;;;;;;;;;;;;17.52;57.18;96845.47;5056864;28;19986;-83
2021/09/03 06:42:01;;;;;;;;;;;;;;;17.65;56.63;96834.41;5057014;28;19957;-83
2021/09/03 06:44:27;;;;;;;;;;;;;;;17.70;57.10;96836.34;5056979;28;19975;-83
2021/09/03 06:46:54;;;;;;;;;;;;;;;17.67;56.91;96844.78;5056754;28;20020;-83
2021/09/03 06:49:20;;;;;;;;;;;;;;;17.71;56.51;96840.56;5056675;28;19963;-83
2021/09/03 06:51:45;;;;;;;;;;;;;;;17.76;57.53;96850.41;5056923;28;20319;-83
2021/09/03 06:54:11;;;;;;;;;;;;;;;17.70;57.02;96852.25;5056478;28;19964;-83
2021/09/03 06:56:37;;;;;;;;;;;;;;;17.58;57.03;96847.09;5057130;28;19989;-83
2021/09/03 06:59:03;;;;;;;;;;;;;;;17.58;58.06;96856.91;5056508;28;20414;-83
2021/09/03 07:01:29;;;;;;;;;;;;;;;17.77;58.00;96850.16;5056611;28;19974;-83
2021/09/03 07:03:55;;;;;;;;;;;;;;;17.97;57.72;96843.44;5056271;28;19977;-83
2021/09/03 07:06:21;;;;;;;;;;;;;;;18.04;57.66;96847.47;5056391;28;19959;-82
2021/09/03 07:08:47;;;;;;;;;;;;;;;18.13;58.30;96849.66;5056274;28;20344;-83
2021/09/03 07:11:13;;;;;;;;;;;;;;;18.27;58.26;96853.47;5056790;28;20043;-82
2021/09/03 07:13:39;;;;;;;;;;;;;;;18.42;57.98;96850.88;5054598;28;19983;-82
2021/09/03 07:16:05;;;;;;;;;;;;;;;18.54;57.48;96849.84;5054607;28;20016;-82
2021/09/03 07:18:31;;;;;;;;;;;;;;;18.63;57.02;96848.31;5056250;28;19963;-82
2021/09/03 07:20:57;;;;;;;;;;;;;;;18.46;56.86;96849.31;5055958;28;20047;-82
2021/09/03 07:23:24;;;;;;;;;;;;;;;18.34;57.54;96859.31;5055518;28;20455;-82
2021/09/03 07:25:50;;;;;;;;;;;;;;;18.34;57.38;96871.81;5047010;28;20032;-82
2021/09/03 07:28:16;;;;;;;;;;;;;;;18.31;57.88;96873.13;5056131;28;19970;-82
2021/09/03 07:30:42;;;;;;;;;;;;;;;18.36;59.31;96886.44;5055328;28;19984;-82
2021/09/03 07:33:09;;;;;;;;;;;;;;;18.47;58.13;96868.69;5056125;28;19973;-82
2021/09/03 07:35:35;;;;;;;;;;;;;;;18.61;58.40;96877.78;5054582;28;19988;-82
2021/09/03 07:38:01;;;;;;;;;;;;;;;18.60;57.88;96865.56;5055780;28;19977;-82
2021/09/03 07:40:27;;;;;;;;;;;;;;;18.52;58.43;96865.25;5055939;28;20435;-82
2021/09/03 07:42:54;;;;;;;;;;;;;;;18.39;56.94;96856.69;5054994;28;19981;-82
2021/09/03 07:45:20;;;;;;;;;;;;;;;18.42;58.49;96868.69;5055892;28;19984;-82
2021/09/03 07:47:46;;;;;;;;;;;;;;;18.47;58.02;96860.72;5055615;28;19966;-82
2021/09/03 07:50:12;;;;;;;;;;;;;;;18.30;57.47;96854.78;5055478;28;19969;-82
2021/09/03 07:52:38;;;;;;;;;;;;;;;18.25;58.59;96863.53;5055779;28;20323;-82
2021/09/03 07:55:04;;;;;;;;;;;;;;;18.34;59.09;96864.63;5055577;28;20023;-82
2021/09/03 07:57:30;;;;;;;;;;;;;;;18.49;58.81;96860.47;5055665;28;19977;-82
2021/09/03 07:59:56;;;;;;;;;;;;;;;18.60;58.81;96856.78;5054757;28;19980;-82
2021/09/03 08:02:22;;;;;;;;;;;;;;;18.71;58.66;96853.13;5055589;28;19969;-82
2021/09/03 08:04:48;;;;;;;;;;;;;;;18.83;57.88;96840.44;5054309;28;19985;-82
2021/09/03 08:07:13;;;;;;;;;;;;;;;19.00;57.83;96844.75;5055428;28;19980;-82
2021/09/03 08:09:39;;;;;;;;;;;;;;;19.13;57.20;96838.94;5055819;28;20454;-82
2021/09/03 08:12:05;;;;;;;;;;;;;;;19.26;56.47;96843.75;5055157;28;20068;-82
2021/09/03 08:14:32;;;;;;;;;;;;;;;19.15;54.54;96807.56;5055546;28;19973;-82
2021/09/03 08:16:58;;;;;;;;;;;;;;;18.96;56.43;96836.50;5055115;28;19977;-82
2021/09/03 08:19:24;;;;;;;;;;;;;;;18.96;57.35;96844.50;5054804;28;19980;-82
2021/09/03 08:21:50;;;;;;;;;;;;;;;19.06;56.67;96838.38;5055087;28;19993;-82
2021/09/03 08:24:16;;;;;;;;;;;;;;;19.21;57.04;96848.25;5055268;28;19989;-82
2021/09/03 08:26:43;;;;;;;;;;;;;;;19.27;56.07;96837.34;5055401;28;19980;-82
2021/09/03 08:29:09;;;;;;;;;;;;;;;19.30;55.46;96827.25;5055192;28;19973;-82
2021/09/03 08:31:34;;;;;;;;;;;;;;;19.08;55.69;96838.13;5054783;28;20068;-82
2021/09/03 08:34:00;;;;;;;;;;;;;;;18.90;56.57;96850.03;5054326;28;19976;-82
2021/09/03 08:36:26;;;;;;;;;;;;;;;18.81;57.12;96847.06;5054768;28;19969;-82
2021/09/03 08:38:52;;;;;;;;;;;;;;;18.91;57.95;96856.94;5055239;28;19981;-82
2021/09/03 08:41:18;;;;;;;;;;;;;;;18.96;56.95;96852.47;5054396;28;20012;-82
2021/09/03 08:43:44;;;;;;;;;;;;;;;18.97;57.72;96859.34;5052706;28;20060;-82
2021/09/03 08:46:12;;;;;;;;;;;;;;;19.06;57.79;96847.16;5054454;28;19981;-82
2021/09/03 08:48:39;;;;;;;;;;;;;;;19.14;57.27;96855.69;5054561;28;19969;-82
2021/09/03 08:51:05;;;;;;;;;;;;;;;19.23;57.69;96854.09;5054186;28;19973;-82
2021/09/03 08:53:31;;;;;;;;;;;;;;;19.23;57.92;96864.72;5054455;28;20374;-82
2021/09/03 08:55:57;;;;;;;;;;;;;;;19.26;58.01;96862.34;5054737;28;19976;-82
2021/09/03 08:58:23;;;;;;;;;;;;;;;19.32;57.53;96859.69;5054553;28;19980;-82
2021/09/03 09:01:09;;;;;;;;;;;;;;;19.34;56.19;96850.41;5054190;28;20350;-82
2021/09/03 09:03:36;;;;;;;;;;;;;;;19.35;57.23;96854.66;5040218;28;20461;-82
2021/09/03 09:06:02;;;;;;;;;;;;;;;19.33;56.80;96853.34;5054471;28;19981;-82
2021/09/03 09:08:29;;;;;;;;;;;;;;;19.29;57.96;96868.22;5054494;28;19973;-82
2021/09/03 09:10:59;;;;;;;;;;;;;;;19.29;57.24;96860.25;5054309;28;19969;-82
2021/09/03 09:13:27;;;;;;;;;;;;;;;19.29;57.66;96860.25;5054267;28;19976;-82
2021/09/03 09:15:57;;;;;;;;;;;;;;;19.16;58.60;96869.53;5053292;28;19965;-82
2021/09/03 09:18:36;;;;;;;;;;;;;;;19.01;59.13;96873.72;5054134;28;19976;-82
2021/09/03 09:21:06;;;;;;;;;;;;;;;19.02;59.34;96870.03;5054321;28;20424;-82
2021/09/03 09:23:38;;;;;;;;;;;;;;;19.12;59.97;96877.22;5053777;28;19993;-82
2021/09/03 09:26:04;;;;;;;;;;;;;;;19.18;59.69;96865.53;5053844;28;19969;-82
2021/09/03 09:28:33;;;;;;;;;;;;;;;19.26;59.91;96862.34;5053633;28;20345;-82
2021/09/03 09:30:59;;;;;;;;;;;;;;;19.31;59.18;96853.59;5053094;28;19969;-82
2021/09/03 09:33:25;;;;;;;;;;;;;;;19.35;59.90;96857.31;5053786;28;20394;-82
2021/09/03 09:35:54;;;;;;;;;;;;;;;19.41;59.46;96850.16;5054118;28;20060;-82
2021/09/03 09:38:22;;;;;;;;;;;;;;;19.38;58.85;96835.53;5053574;28;20426;-82
2021/09/03 09:40:48;;;;;;;;;;;;;;;19.40;58.02;96827.25;5053484;28;19992;-82
2021/09/03 09:43:26;;;;;;;;;;;;;;;19.44;59.03;96839.78;5053700;28;20473;-82
2021/09/03 09:46:10;;;;;;;;;;;;;;;19.48;59.03;96843.50;5052803;28;20451;-82
2021/09/03 09:48:48;;;;;;;;;;;;;;;19.49;57.83;96823.03;5053645;28;19977;-82
2021/09/03 09:51:21;;;;;;;;;;;;;;;19.47;58.20;96825.94;5052740;28;19980;-82
2021/09/03 09:53:54;;;;;;;;;;;;;;;19.47;58.30;96833.94;5043360;28;19977;-82
2021/09/03 09:56:21;;;;;;;;;;;;;;;19.49;58.67;96833.66;5053536;28;19988;-82
2021/09/03 09:58:51;;;;;;;;;;;;;;;19.45;59.77;96833.41;5053388;28;19970;-82
2021/09/03 10:01:18;;;;;;;;;;;;;;;19.52;59.59;96835.78;5053578;28;19969;-81
2021/09/03 10:03:45;;;;;;;;;;;;;;;19.58;59.50;96828.63;5053276;28;19989;-81
2021/09/03 10:06:11;;;;;;;;;;;;;;;19.66;59.14;96826.22;5053404;28;19973;-81
2021/09/03 10:08:39;;;;;;;;;;;;;;;19.73;59.11;96815.31;5053533;28;20441;-82
2021/09/03 10:11:05;;;;;;;;;;;;;;;19.81;58.17;96812.13;5053550;28;19992;-82
2021/09/03 10:13:31;;;;;;;;;;;;;;;19.87;58.46;96812.94;5041987;28;19973;-81
2021/09/03 10:15:58;;;;;;;;;;;;;;;19.94;59.20;96812.66;5053320;28;19980;-81
2021/09/03 10:18:24;;;;;;;;;;;;;;;20.02;59.27;96815.56;5052991;28;19973;-82
2021/09/03 10:20:50;;;;;;;;;;;;;;;20.15;58.48;96808.09;5053295;28;20217;-82
2021/09/03 10:23:36;;;;;;;;;;;;;;;20.18;57.85;96796.88;5053199;28;20026;-82
2021/09/03 10:26:02;;;;;;;;;;;;;;;20.25;58.76;96808.06;5042625;28;19969;-81
2021/09/03 10:28:28;;;;;;;;;;;;;;;20.39;59.04;96803.75;5053010;28;19977;-81
2021/09/03 10:31:04;;;;;;;;;;;;;;;20.57;58.35;96790.88;5052658;28;20423;-81
2021/09/03 10:33:34;;;;;;;;;;;;;;;20.78;59.25;96803.06;5053021;28;19976;-82
2021/09/03 10:36:00;;;;;;;;;;;;;;;20.94;58.21;96790.47;5053084;28;19977;-82
2021/09/03 10:38:28;;;;;;;;;;;;;;;21.04;56.92;96785.06;5053266;28;19969;-81
2021/09/03 10:40:54;;;;;;;;;;;;;;;21.06;55.75;96771.44;5053065;28;19976;-81
2021/09/03 10:43:38;;;;;;;;;;;;;;;21.20;56.29;96774.28;5052839;28;19981;-81
2021/09/03 10:46:06;;;;;;;;;;;;;;;21.38;55.93;96770.16;5053779;28;19965;-81
2021/09/03 10:48:32;;;;;;;;;;;;;;;21.52;55.07;96765.78;5052043;28;19976;-81
2021/09/03 10:50:59;;;;;;;;;;;;;;;21.70;55.54;96772.31;5052867;28;19965;-81
2021/09/03 10:53:27;;;;;;;;;;;;;;;21.91;55.38;96775.56;5052204;28;19984;-81
2021/09/03 10:56:17;;;;;;;;;;;;;;;22.10;55.14;96767.63;5040140;28;19965;-81
2021/09/03 10:58:47;;;;;;;;;;;;;;;22.30;53.71;96750.63;5055756;28;19977;-81
2021/09/03 11:01:13;;;;;;;;;;;;;;;22.38;52.30;96727.78;5056436;28;19969;-81
2021/09/03 11:03:44;;;;;;;;;;;;;;;22.37;52.79;96740.38;5056452;28;20454;-81
2021/09/03 11:06:12;;;;;;;;;;;;;;;22.42;53.24;96744.84;5056364;28;19965;-81
2021/09/03 11:08:41;;;;;;;;;;;;;;;22.53;52.72;96737.50;5056252;28;19965;-81
2021/09/03 11:11:26;;;;;;;;;;;;;;;22.54;51.33;96729.19;5056575;28;19976;-81
2021/09/03 11:13:56;;;;;;;;;;;;;;;22.49;52.02;96731.94;5045236;28;19965;-81
2021/09/03 11:16:42;;;;;;;;;;;;;;;22.53;48.48;96708.88;5056301;28;19976;-81
2021/09/03 11:19:14;;;;;;;;;;;;;;;22.69;51.98;96739.66;5056834;28;19977;-81
2021/09/03 11:21:44;;;;;;;;;;;;;;;22.92;52.01;96736.44;5044079;28;20350;-81
2021/09/03 11:24:12;;;;;;;;;;;;;;;23.16;52.32;96734.50;5054977;28;19985;-81
2021/09/03 11:26:38;;;;;;;;;;;;;;;23.40;50.84;96718.28;5055901;28;19973;-81
2021/09/03 11:29:21;;;;;;;;;;;;;;;23.60;49.55;96708.31;5056124;28;19965;-81
2021/09/03 11:31:53;;;;;;;;;;;;;;;23.67;50.43;96719.44;5055946;28;20443;-81
2021/09/03 11:34:39;;;;;;;;;;;;;;;23.60;50.54;96724.38;5056547;28;19970;-81
2021/09/03 11:37:05;;;;;;;;;;;;;;;23.60;50.10;96719.03;5055531;28;20342;-80
2021/09/03 11:39:33;;;;;;;;;;;;;;;23.63;51.48;96723.81;5055852;28;19977;-81
2021/09/03 11:42:00;;;;;;;;;;;;;;;23.77;48.88;96699.72;5055867;28;19970;-81
2021/09/03 11:44:26;;;;;;;;;;;;;;;23.85;50.27;96715.91;5055866;28;20350;-81
2021/09/03 11:46:52;;;;;;;;;;;;;;;23.91;48.83;96712.03;5055921;28;19970;-81
2021/09/03 11:49:21;;;;;;;;;;;;;;;23.96;48.13;96705.81;5055277;28;20315;-81
2021/09/03 11:51:48;;;;;;;;;;;;;;;23.90;46.96;96705.09;5055663;28;19973;-81
2021/09/03 11:54:17;;;;;;;;;;;;;;;23.80;48.29;96715.22;5055561;28;20019;-81
2021/09/03 11:56:43;;;;;;;;;;;;;;;23.90;50.20;96729.22;5055500;28;19969;-80
2021/09/03 11:59:09;;;;;;;;;;;;;;;24.10;49.68;96716.50;5054800;28;19977;-81
2021/09/03 12:01:35;;;;;;;;;;;;;;;24.30;48.66;96709.97;5055990;28;19973;-81
2021/09/03 12:04:06;;;;;;;;;;;;;;;24.35;48.26;96715.19;5054901;28;20481;-80
2021/09/03 12:06:32;;;;;;;;;;;;;;;24.54;48.82;96715.09;5055304;28;19965;-81
2021/09/03 12:08:58;;;;;;;;;;;;;;;24.74;48.88;96715.72;5054530;28;19969;-81
2021/09/03 12:11:32;;;;;;;;;;;;;;;24.91;47.92;96711.31;5054555;28;20498;-81
2021/09/03 12:13:58;;;;;;;;;;;;;;;24.94;47.53;96704.53;5055813;28;19964;-80
2021/09/03 12:16:25;;;;;;;;;;;;;;;24.90;44.86;96693.66;5055098;28;20055;-80
2021/09/03 12:18:52;;;;;;;;;;;;;;;24.70;46.45;96711.00;5054899;28;20346;-81
2021/09/03 12:21:20;;;;;;;;;;;;;;;24.67;46.90;96713.47;5054393;28;19977;-81
2021/09/03 12:23:52;;;;;;;;;;;;;;;24.73;47.63;96714.94;5055352;28;20001;-80
2021/09/03 12:26:19;;;;;;;;;;;;;;;24.74;45.22;96705.00;5055181;28;19973;-80
2021/09/03 12:28:47;;;;;;;;;;;;;;;24.80;47.10;96725.25;5055097;28;19976;-81
2021/09/03 12:31:19;;;;;;;;;;;;;;;24.86;46.42;96716.81;5054793;28;19976;-80
2021/09/03 12:33:46;;;;;;;;;;;;;;;25.04;47.82;96727.66;5054585;28;19995;-80
2021/09/03 12:36:12;;;;;;;;;;;;;;;25.16;46.20;96713.69;5054477;28;19966;-81
2021/09/03 12:38:40;;;;;;;;;;;;;;;25.22;46.76;96723.22;5054648;28;19973;-80
2021/09/03 12:41:08;;;;;;;;;;;;;;;25.25;45.89;96719.94;5054601;28;20467;-80
2021/09/03 12:43:34;;;;;;;;;;;;;;;25.26;45.98;96722.34;5054842;28;19969;-80
2021/09/03 12:46:05;;;;;;;;;;;;;;;25.26;45.75;96719.66;5054518;28;19973;-81
2021/09/03 12:48:31;;;;;;;;;;;;;;;25.42;47.42;96730.78;5053422;28;19976;-81